logo
Search for airport 
image banner adimage banner adimage banner ad
image banner ad

EDWRB - Warburg

Located in , Germany

ICAO - ED0239, IATA -

Data provided by Airmate  

General information

Coordinates: N51°29'53" E9°5'9"
Elevation is 561 feet MSL.
 
View others Airports in Hesse

Operational data

Special qualification required
Current time UTC:
Current local time:
Weather at : EDVK - Kassel-Calden ( 23 km )
METAR: EDVK 130250Z AUTO 21006KT 9999 // SCT026/// SCT034/// 13/10 Q1011
TAF: TAF AMD EDVK 121703Z 1217/1224 24015G25KT 9999 SCT035 BECMG 1219/1221 27008KT BECMG 1222/1224 BKN014
View NOTAMs / SUP AIP / TFR affecting this airport [VIEW]
Communications frequencies: [VIEW]

Runways:

RWY identifierQFULength (ft)Width (ft)SurfaceLDA (ft)
12130°298698GRASS
30310°298698GRASS

Airport contact information

Address: Germany

Satellite view of EDWRB